Time;durP1;ratioP1;P1;durP2;ratioP2;P2;SDS_P1;SDS_P2;PMS_P1;PMS_P2;Temp;Humidity;BMP_temperature;BMP_pressure;BME280_temperature;BME280_humidity;BME280_pressure;Samples;Min_cycle;Max_cycle;Signal;HPM_P1;HPM_P2
2023/07/13 00:00:22;;;;;;;21.88;20.02;;;;;;;24.11;63.72;99786.31;4822236;29;96844;-69
2023/07/13 00:02:47;;;;;;;21.13;19.52;;;;;;;24.12;63.51;99780.00;4820690;29;98713;-69
2023/07/13 00:05:13;;;;;;;23.25;21.27;;;;;;;24.11;63.55;99779.13;4821354;29;98220;-69
2023/07/13 00:07:38;;;;;;;22.52;20.65;;;;;;;24.10;63.63;99781.97;4833559;29;96732;-69
2023/07/13 00:10:05;;;;;;;21.88;20.02;;;;;;;24.04;63.68;99772.69;4821961;29;97377;-69
2023/07/13 00:12:36;;;;;;;21.75;19.88;;;;;;;24.14;63.21;99780.66;4820809;29;98742;-69
2023/07/13 00:15:09;;;;;;;21.98;20.20;;;;;;;24.13;63.29;99776.31;4821094;29;98587;-69
2023/07/13 00:17:35;;;;;;;23.15;21.05;;;;;;;24.16;63.43;99774.16;4834396;29;97271;-69
2023/07/13 00:20:00;;;;;;;21.98;20.48;;;;;;;24.16;63.16;99779.50;4820538;29;96999;-69
2023/07/13 00:22:26;;;;;;;22.38;20.58;;;;;;;24.18;63.39;99785.56;4820533;29;97579;-69
2023/07/13 00:24:53;;;;;;;22.42;20.70;;;;;;;24.20;63.19;99785.41;4827639;29;98346;-69
2023/07/13 00:27:18;;;;;;;22.75;20.95;;;;;;;24.18;63.37;99779.38;4826871;29;96851;-69
2023/07/13 00:29:45;;;;;;;23.80;21.73;;;;;;;24.18;63.39;99782.91;4832656;29;96844;-69
2023/07/13 00:32:11;;;;;;;22.35;20.58;;;;;;;24.15;63.30;99777.84;4835079;29;97542;-69
2023/07/13 00:34:38;;;;;;;21.83;19.73;;;;;;;24.13;63.51;99770.94;4820541;29;97368;-69
2023/07/13 00:37:06;;;;;;;22.42;20.50;;;;;;;24.03;64.20;99767.47;4803711;29;96980;-69
2023/07/13 00:39:32;;;;;;;21.88;20.33;;;;;;;23.91;64.68;99773.06;4821015;29;96782;-69
2023/07/13 00:41:58;;;;;;;22.60;20.80;;;;;;;23.93;64.49;99783.63;4820811;29;98567;-69
2023/07/13 00:44:24;;;;;;;22.42;20.52;;;;;;;23.95;64.25;99790.53;4820257;29;98325;-69
2023/07/13 00:46:50;;;;;;;21.92;20.23;;;;;;;24.01;64.17;99809.69;4820912;29;96802;-69
2023/07/13 00:49:18;;;;;;;21.65;19.98;;;;;;;24.07;64.01;99827.84;4820881;29;96907;-69
2023/07/13 00:51:48;;;;;;;22.38;20.60;;;;;;;24.12;63.79;99839.81;4813780;29;100290;-69
2023/07/13 00:54:19;;;;;;;23.13;21.13;;;;;;;24.02;64.18;99843.53;4823242;29;98057;-69
2023/07/13 00:56:48;;;;;;;22.77;20.95;;;;;;;24.00;64.12;99841.03;4819155;29;96898;-69
2023/07/13 00:59:15;;;;;;;21.98;20.00;;;;;;;23.99;64.27;99811.66;4820535;29;96823;-69
2023/07/13 01:01:41;;;;;;;22.10;20.20;;;;;;;24.00;64.24;99816.03;4819300;29;97641;-69
2023/07/13 01:04:07;;;;;;;22.95;20.92;;;;;;;23.97;64.06;99814.53;4820438;29;97086;-69
2023/07/13 01:06:37;;;;;;;23.35;21.27;;;;;;;24.00;63.95;99824.94;4853183;29;96725;-69
2023/07/13 01:09:04;;;;;;;22.25;20.45;;;;;;;24.01;63.86;99825.78;4810897;29;96856;-69
2023/07/13 01:11:30;;;;;;;22.23;20.02;;;;;;;24.00;63.94;99824.06;4816610;29;98598;-69
2023/07/13 01:13:56;;;;;;;22.67;20.35;;;;;;;23.97;63.97;99795.75;4820184;29;98257;-69
2023/07/13 01:16:27;;;;;;;22.75;20.52;;;;;;;23.91;64.36;99793.66;4803727;29;96780;-69
2023/07/13 01:18:54;;;;;;;23.02;20.98;;;;;;;23.79;65.16;99802.91;4829164;29;96868;-69
2023/07/13 01:21:19;;;;;;;22.08;20.02;;;;;;;23.73;65.00;99801.66;4808697;29;97541;-69
2023/07/13 01:23:45;;;;;;;22.13;20.33;;;;;;;23.72;65.20;99795.47;4831458;29;98223;-69
2023/07/13 01:26:11;;;;;;;22.92;20.92;;;;;;;23.68;64.84;99794.06;4820593;29;96713;-69
2023/07/13 01:28:37;;;;;;;23.27;21.55;;;;;;;23.68;64.94;99793.22;4803490;29;96918;-69
2023/07/13 01:31:03;;;;;;;22.55;20.65;;;;;;;23.70;64.77;99796.59;4818832;29;100918;-69
2023/07/13 01:33:29;;;;;;;22.42;20.10;;;;;;;23.57;65.33;99796.94;4815179;29;100233;-70
2023/07/13 01:35:58;;;;;;;22.50;20.73;;;;;;;23.20;66.85;99796.94;4820211;29;97143;-69
2023/07/13 01:38:25;;;;;;;23.08;21.00;;;;;;;22.90;67.89;99793.47;4829698;29;96908;-69
2023/07/13 01:40:53;;;;;;;22.48;20.63;;;;;;;23.01;67.25;99797.84;4820339;29;98078;-69
2023/07/13 01:43:19;;;;;;;23.02;21.10;;;;;;;22.98;67.62;99782.03;4819800;29;97571;-69
2023/07/13 01:45:45;;;;;;;22.77;20.98;;;;;;;23.00;67.29;99772.06;4819209;29;97148;-69
2023/07/13 01:48:12;;;;;;;23.88;22.05;;;;;;;23.12;66.80;99767.38;4819914;29;96871;-69
2023/07/13 01:50:38;;;;;;;23.08;21.38;;;;;;;23.16;66.40;99763.41;4802976;29;99599;-70
2023/07/13 01:53:03;;;;;;;24.17;21.95;;;;;;;23.14;66.78;99768.06;4819780;29;98023;-69
2023/07/13 01:55:29;;;;;;;26.13;21.10;;;;;;;23.17;66.53;99773.13;4819777;29;97080;-69
2023/07/13 01:57:55;;;;;;;22.77;20.85;;;;;;;23.16;66.44;99764.25;4803297;29;96890;-69
2023/07/13 02:00:21;;;;;;;24.15;21.58;;;;;;;23.18;66.23;99761.41;4818425;29;100925;-69
2023/07/13 02:02:47;;;;;;;23.60;21.40;;;;;;;23.19;66.06;99757.78;4824864;29;98374;-69
2023/07/13 02:05:13;;;;;;;24.67;21.88;;;;;;;23.14;66.33;99757.38;4826240;29;96768;-69
2023/07/13 02:07:40;;;;;;;26.55;20.05;;;;;;;23.16;66.19;99761.59;4819383;29;96839;-69
2023/07/13 02:10:07;;;;;;;23.67;21.75;;;;;;;23.17;66.13;99754.41;4828892;29;98733;-69
2023/07/13 02:12:33;;;;;;;24.08;21.95;;;;;;;23.15;66.07;99756.38;4819623;29;100200;-69
2023/07/13 02:14:59;;;;;;;23.35;21.40;;;;;;;23.09;65.98;99748.91;4830713;29;97071;-69
2023/07/13 02:17:26;;;;;;;22.10;20.48;;;;;;;23.11;65.87;99760.34;4819242;29;97481;-69
2023/07/13 02:19:52;;;;;;;23.85;21.55;;;;;;;23.10;65.95;99753.31;4819473;29;99094;-69
2023/07/13 02:22:18;;;;;;;23.17;21.17;;;;;;;23.11;65.87;99752.31;4819033;29;98404;-69
2023/07/13 02:24:43;;;;;;;24.38;22.17;;;;;;;23.09;65.86;99755.13;4819590;29;97073;-69
2023/07/13 02:27:09;;;;;;;35.00;24.35;;;;;;;23.06;66.07;99747.38;4820117;29;96837;-69
2023/07/13 02:29:34;;;;;;;22.95;20.77;;;;;;;23.06;66.02;99744.69;4830759;29;98578;-69
2023/07/13 02:32:00;;;;;;;23.45;21.17;;;;;;;23.04;66.09;99744.88;4819845;29;97536;-69
2023/07/13 02:34:26;;;;;;;24.08;21.33;;;;;;;23.00;66.07;99732.75;4818190;29;96843;-69
2023/07/13 02:36:51;;;;;;;23.00;21.15;;;;;;;23.01;66.19;99734.44;4818980;29;98021;-69
2023/07/13 02:39:17;;;;;;;22.77;20.83;;;;;;;22.98;66.22;99739.22;4818489;29;99078;-69
2023/07/13 02:41:42;;;;;;;22.27;19.98;;;;;;;22.97;66.19;99738.38;4819462;29;97124;-70
2023/07/13 02:44:08;;;;;;;23.15;20.85;;;;;;;22.94;66.39;99738.66;4837652;29;96729;-69
2023/07/13 02:46:35;;;;;;;24.25;21.67;;;;;;;22.94;66.26;99735.13;4824911;29;98113;-69
2023/07/13 02:49:01;;;;;;;23.67;21.63;;;;;;;22.90;66.44;99739.94;4818795;29;98705;-69
2023/07/13 02:51:27;;;;;;;21.63;19.83;;;;;;;22.91;66.33;99738.09;4819233;29;98388;-69
2023/07/13 02:53:52;;;;;;;24.50;20.95;;;;;;;22.87;66.18;99744.75;4832036;29;96639;-69
2023/07/13 02:56:26;;;;;;;23.48;21.38;;;;;;;22.92;65.97;99756.72;4833559;29;96955;-69
2023/07/13 02:58:52;;;;;;;23.35;21.00;;;;;;;22.95;66.11;99767.16;4818043;29;98740;-70
2023/07/13 03:01:18;;;;;;;23.05;21.17;;;;;;;22.98;65.87;99761.50;4802326;29;100131;-69
2023/07/13 03:03:48;;;;;;;23.40;21.45;;;;;;;22.99;65.95;99760.50;4830640;29;97370;-69
2023/07/13 03:06:15;;;;;;;23.60;21.38;;;;;;;22.98;65.81;99766.84;4820577;29;96855;-69
2023/07/13 03:08:52;;;;;;;23.83;21.60;;;;;;;22.99;65.86;99757.84;4814369;29;100521;-69
2023/07/13 03:11:19;;;;;;;23.17;21.30;;;;;;;23.06;65.56;99766.13;4804789;29;100147;-69
2023/07/13 03:13:48;;;;;;;24.00;21.65;;;;;;;23.08;65.51;99760.63;4802227;29;96836;-69
2023/07/13 03:16:15;;;;;;;23.65;21.45;;;;;;;23.15;65.25;99761.72;4833533;29;96917;-69
2023/07/13 03:18:43;;;;;;;23.25;21.23;;;;;;;23.20;65.23;99765.66;4801856;29;100533;-69
2023/07/13 03:21:10;;;;;;;23.25;21.15;;;;;;;23.23;64.91;99751.13;4835800;29;100438;-69
2023/07/13 03:23:36;;;;;;;23.08;21.17;;;;;;;23.27;64.62;99756.06;4826672;29;96847;-69
2023/07/13 03:26:07;;;;;;;22.42;20.40;;;;;;;23.33;64.31;99759.09;4819094;29;98216;-69
2023/07/13 03:28:33;;;;;;;22.80;20.70;;;;;;;23.37;64.24;99761.34;4818186;29;99351;-69
2023/07/13 03:31:17;;;;;;;22.77;20.48;;;;;;;23.40;64.01;99760.22;4802159;29;98576;-69
2023/07/13 03:33:43;;;;;;;21.42;19.83;;;;;;;23.44;63.70;99765.09;4818632;29;96792;-69
2023/07/13 03:36:20;;;;;;;22.85;20.48;;;;;;;23.44;63.65;99773.16;4826126;29;96841;-69
2023/07/13 03:38:51;;;;;;;22.77;20.70;;;;;;;23.46;63.53;99764.97;4801421;29;100027;-69
2023/07/13 03:41:22;;;;;;;22.13;20.25;;;;;;;23.47;63.29;99772.00;4843937;29;100234;-69
2023/07/13 03:43:49;;;;;;;22.77;20.88;;;;;;;23.51;63.08;99781.44;4818535;29;96983;-69
2023/07/13 03:46:17;;;;;;;21.02;19.10;;;;;;;23.56;62.66;99776.50;4832961;29;97012;-69
2023/07/13 03:48:45;;;;;;;21.95;20.00;;;;;;;23.62;62.64;99769.69;4800474;29;100092;-69
2023/07/13 03:51:14;;;;;;;24.20;19.20;;;;;;;23.68;62.39;99769.94;4810503;29;99323;-69
2023/07/13 03:53:44;;;;;;;27.50;20.23;;;;;;;23.73;61.85;99769.50;4825502;29;97406;-69
2023/07/13 03:56:11;;;;;;;25.65;20.75;;;;;;;23.76;61.82;99769.19;4839200;29;97001;-69
2023/07/13 03:58:39;;;;;;;22.08;19.75;;;;;;;23.78;61.90;99758.34;4825514;29;100464;-69
2023/07/13 04:01:15;;;;;;;22.20;20.08;;;;;;;23.79;61.38;99766.22;4832371;29;100489;-69
2023/07/13 04:03:41;;;;;;;23.67;20.20;;;;;;;23.77;61.34;99770.91;4816909;29;97039;-69
2023/07/13 04:06:15;;;;;;;20.55;19.13;;;;;;;23.73;61.05;99783.75;4835363;29;96955;-69
2023/07/13 04:08:41;;;;;;;22.52;20.75;;;;;;;23.70;60.90;99785.88;4820873;29;98694;-69
2023/07/13 04:11:07;;;;;;;23.70;21.25;;;;;;;23.67;60.83;99794.19;4804566;29;100222;-69
2023/07/13 04:13:33;;;;;;;23.05;21.17;;;;;;;23.66;60.04;99797.88;4820479;29;96728;-69
2023/07/13 04:15:58;;;;;;;20.73;19.13;;;;;;;23.63;59.77;99807.03;4833104;29;96821;-69
2023/07/13 04:18:24;;;;;;;20.90;19.30;;;;;;;23.59;59.29;99819.06;4828736;29;98643;-69
2023/07/13 04:20:50;;;;;;;22.15;20.55;;;;;;;23.58;59.28;99837.94;4839311;29;98469;-69
2023/07/13 04:23:19;;;;;;;22.35;20.38;;;;;;;23.61;59.53;99877.84;4820861;29;96714;-69
2023/07/13 04:25:46;;;;;;;21.73;19.80;;;;;;;23.61;59.41;99913.50;4821097;29;96964;-69
2023/07/13 04:28:12;;;;;;;26.00;20.25;;;;;;;23.53;58.66;99934.81;4820277;29;98528;-69
2023/07/13 04:30:37;;;;;;;22.40;20.08;;;;;;;23.53;57.78;99961.59;4821199;29;98319;-69
2023/07/13 04:33:04;;;;;;;21.77;19.45;;;;;;;23.47;56.71;100003.22;4820664;29;97204;-69
2023/07/13 04:35:30;;;;;;;21.42;19.50;;;;;;;23.31;56.05;100018.16;4820711;29;96974;-69
2023/07/13 04:37:56;;;;;;;20.77;18.95;;;;;;;23.27;56.36;100047.03;4819608;29;98602;-69
2023/07/13 04:40:21;;;;;;;21.45;19.38;;;;;;;23.25;56.80;100039.16;4820821;29;98527;-69
2023/07/13 04:42:47;;;;;;;21.13;19.40;;;;;;;23.26;57.21;100040.84;4819849;29;96850;-80
2023/07/13 04:45:14;;;;;;;21.13;19.63;;;;;;;23.14;57.96;100041.97;4829476;29;96774;-86
2023/07/13 04:47:40;;;;;;;21.90;19.85;;;;;;;23.09;58.58;100070.97;4824586;29;99132;-88
2023/07/13 04:50:07;;;;;;;22.95;20.52;;;;;;;22.98;58.84;100074.63;4821353;29;98521;-87
2023/07/13 04:52:32;;;;;;;22.60;20.25;;;;;;;22.91;59.19;100085.97;4847465;29;97095;-76
2023/07/13 04:54:59;;;;;;;20.55;18.95;;;;;;;22.79;58.96;100102.16;4821528;29;96958;-75
2023/07/13 04:57:26;;;;;;;20.13;18.52;;;;;;;22.69;59.22;100103.09;4820316;29;99282;-75
2023/07/13 04:59:51;;;;;;;20.45;18.67;;;;;;;22.59;59.47;100092.34;4820259;29;98491;-75
2023/07/13 05:02:17;;;;;;;20.92;19.33;;;;;;;22.39;60.07;100062.00;4820932;29;97627;-75
2023/07/13 05:04:46;;;;;;;20.02;18.63;;;;;;;22.29;60.10;100043.25;4820510;29;96754;-75
2023/07/13 05:07:12;;;;;;;20.17;18.40;;;;;;;22.16;60.50;100042.59;4820198;29;99210;-75
2023/07/13 05:09:37;;;;;;;19.17;17.70;;;;;;;22.17;60.39;100059.50;4819577;29;98466;-75
2023/07/13 05:12:03;;;;;;;20.17;18.40;;;;;;;22.15;60.46;100048.94;4822997;29;96989;-75
2023/07/13 05:14:28;;;;;;;21.27;19.27;;;;;;;22.09;60.31;100049.47;4819852;29;96835;-75
2023/07/13 05:16:54;;;;;;;20.67;18.90;;;;;;;22.06;60.74;100058.59;4808657;29;98752;-75
2023/07/13 05:19:20;;;;;;;20.25;18.40;;;;;;;22.05;60.89;100048.88;4816285;29;98334;-75
2023/07/13 05:21:45;;;;;;;19.63;17.88;;;;;;;21.95;60.96;100029.28;4820402;29;96795;-75
2023/07/13 05:24:11;;;;;;;19.38;17.58;;;;;;;21.89;61.00;100013.78;4819839;29;96872;-75
2023/07/13 05:26:37;;;;;;;19.88;17.95;;;;;;;21.82;60.85;99989.41;4819028;29;98597;-75
2023/07/13 05:29:02;;;;;;;19.27;17.83;;;;;;;;;;4819903;29;98825;-75
2023/07/13 05:31:28;;;;;;;20.17;18.50;;;;;;;;;;4820077;29;96806;-75
2023/07/13 05:33:53;;;;;;;19.25;17.75;;;;;;;21.63;60.72;99939.38;4819167;29;98035;-75
2023/07/13 05:36:19;;;;;;;19.15;17.75;;;;;;;21.41;60.74;99940.41;4820006;29;98643;-75
2023/07/13 05:38:44;;;;;;;19.10;17.50;;;;;;;21.52;60.81;99968.00;4818712;29;98396;-76
2023/07/13 05:41:10;;;;;;;19.20;17.80;;;;;;;21.55;61.67;99981.91;4819820;29;96759;-75
2023/07/13 05:43:35;;;;;;;18.70;17.40;;;;;;;21.56;61.83;99980.97;4819731;29;97245;-75
2023/07/13 05:46:01;;;;;;;18.67;17.30;;;;;;;21.58;62.19;99967.47;4819721;29;98643;-75
2023/07/13 05:48:26;;;;;;;18.83;17.58;;;;;;;21.43;62.20;99941.09;4819267;29;98428;-75
2023/07/13 05:50:52;;;;;;;21.05;19.23;;;;;;;21.48;62.03;99938.88;4819424;29;96719;-75
2023/07/13 05:53:17;;;;;;;19.50;18.23;;;;;;;21.42;61.91;99915.38;4819211;29;97153;-75
2023/07/13 05:55:50;;;;;;;19.55;17.88;;;;;;;21.39;61.93;99894.28;4819057;29;98705;-76
2023/07/13 05:58:17;;;;;;;19.08;17.73;;;;;;;21.45;61.90;99900.94;4819265;29;98292;-75
2023/07/13 06:00:43;;;;;;;19.90;18.45;;;;;;;21.61;62.11;99921.81;4819506;29;96659;-75
2023/07/13 06:03:08;;;;;;;19.55;18.05;;;;;;;21.78;62.02;99931.03;4819456;29;96853;-75
2023/07/13 06:05:35;;;;;;;19.60;17.98;;;;;;;21.99;61.75;99939.00;4819040;29;99063;-75
2023/07/13 06:08:01;;;;;;;20.45;18.95;;;;;;;22.23;61.71;99934.19;4802318;29;98749;-75
2023/07/13 06:10:27;;;;;;;20.25;18.75;;;;;;;22.49;61.08;99921.19;4819786;29;96776;-75
2023/07/13 06:12:52;;;;;;;19.63;18.30;;;;;;;22.85;59.80;99917.97;4819152;29;96848;-76
2023/07/13 06:15:18;;;;;;;20.02;18.70;;;;;;;23.10;58.05;99904.03;4818015;29;98631;-75
2023/07/13 06:17:43;;;;;;;20.00;18.65;;;;;;;23.87;56.27;99931.63;4820867;29;98983;-76
2023/07/13 06:20:09;;;;;;;21.17;19.33;;;;;;;25.41;53.19;99926.22;4819369;29;97003;-75
2023/07/13 06:22:35;;;;;;;20.83;19.30;;;;;;;26.88;50.79;99926.03;4818645;29;96980;-75
2023/07/13 06:25:00;;;;;;;21.67;20.08;;;;;;;28.24;48.14;99936.09;4819110;29;97993;-76
2023/07/13 06:27:26;;;;;;;21.25;19.65;;;;;;;28.91;46.39;99957.97;4818648;29;97380;-76
2023/07/13 06:29:51;;;;;;;20.70;19.23;;;;;;;28.46;47.76;99961.50;4818901;29;96688;-76
2023/07/13 06:32:17;;;;;;;21.35;19.70;;;;;;;32.51;40.79;99969.22;4819193;29;96933;-76
2023/07/13 06:34:42;;;;;;;21.10;19.50;;;;;;;32.45;40.21;99957.28;4818130;29;97974;-76
2023/07/13 06:37:09;;;;;;;20.85;19.40;;;;;;;31.38;41.28;99970.38;4817869;29;98456;-76
2023/07/13 06:39:34;;;;;;;19.45;18.13;;;;;;;30.82;42.09;99985.44;4818714;29;96744;-76
2023/07/13 06:42:00;;;;;;;20.45;19.15;;;;;;;28.91;45.14;99992.25;4818903;29;97139;-76
2023/07/13 06:44:25;;;;;;;20.33;18.88;;;;;;;27.87;47.27;100016.63;4818639;29;98954;-75
2023/07/13 06:46:51;;;;;;;19.95;18.45;;;;;;;26.85;48.99;100042.13;4818057;29;98516;-76
2023/07/13 06:49:16;;;;;;;20.65;18.98;;;;;;;26.02;51.14;100041.88;4814327;29;97220;-76
2023/07/13 06:51:42;;;;;;;21.23;19.73;;;;;;;25.57;52.69;100042.88;4819160;29;96859;-75
2023/07/13 06:54:07;;;;;;;21.05;19.60;;;;;;;25.19;53.80;100061.00;4818144;29;98893;-75
2023/07/13 06:56:33;;;;;;;22.10;20.30;;;;;;;24.76;54.69;100082.16;4819282;29;98806;-75
2023/07/13 06:58:58;;;;;;;21.60;19.50;;;;;;;24.37;55.41;100081.44;4818418;29;96835;-76
2023/07/13 07:01:24;;;;;;;20.85;19.35;;;;;;;24.03;56.08;100094.50;4819211;29;96898;-75
2023/07/13 07:03:49;;;;;;;21.70;20.15;;;;;;;23.77;56.52;100102.34;4825128;29;98920;-75
2023/07/13 07:06:19;;;;;;;21.00;19.13;;;;;;;23.52;57.21;100117.94;4817444;29;98938;-75
2023/07/13 07:08:45;;;;;;;21.98;20.20;;;;;;;23.34;57.58;100127.66;4818624;29;97099;-75
2023/07/13 07:11:17;;;;;;;21.75;19.98;;;;;;;23.13;58.19;100142.00;4819138;29;97275;-75
2023/07/13 07:13:43;;;;;;;21.50;19.92;;;;;;;23.02;58.72;100142.94;4810632;29;98859;-75
2023/07/13 07:16:09;;;;;;;21.70;20.23;;;;;;;22.91;59.03;100135.00;4817997;29;97583;-75
2023/07/13 07:18:35;;;;;;;21.10;19.60;;;;;;;22.75;59.57;100132.00;4818538;29;96835;-75
2023/07/13 07:21:00;;;;;;;21.67;19.83;;;;;;;22.70;59.85;100115.50;4819153;29;96837;-75
2023/07/13 07:23:26;;;;;;;22.25;20.50;;;;;;;22.60;60.63;100078.88;4817960;29;98644;-75
2023/07/13 07:25:52;;;;;;;21.90;20.20;;;;;;;22.50;61.40;100050.38;4826741;29;98810;-75
2023/07/13 07:28:20;;;;;;;21.13;19.38;;;;;;;22.40;61.34;100038.78;4821091;29;96843;-75
2023/07/13 07:30:47;;;;;;;22.05;20.05;;;;;;;22.41;60.99;100030.66;4822065;29;96892;-74
2023/07/13 07:33:12;;;;;;;23.38;20.88;;;;;;;22.41;61.65;100032.47;4834042;29;99175;-74
2023/07/13 07:35:38;;;;;;;21.95;19.75;;;;;;;22.32;61.46;100000.22;4820559;29;98465;-74
2023/07/13 07:38:03;;;;;;;21.48;19.98;;;;;;;22.24;62.03;99981.31;4821161;29;97162;-74
2023/07/13 07:40:29;;;;;;;21.20;19.77;;;;;;;22.04;62.86;99966.16;4826615;29;96776;-74
2023/07/13 07:42:55;;;;;;;22.38;20.45;;;;;;;21.89;63.29;99947.81;4830196;29;98933;-74
2023/07/13 07:45:21;;;;;;;21.67;20.13;;;;;;;21.88;63.11;99947.97;4821282;29;97309;-74
2023/07/13 07:47:46;;;;;;;23.17;21.25;;;;;;;21.82;63.17;99946.66;4821040;29;96972;-75
2023/07/13 07:50:12;;;;;;;22.73;21.13;;;;;;;21.42;64.38;99928.72;4821647;29;96892;-74
2023/07/13 07:52:38;;;;;;;23.15;21.35;;;;;;;21.27;64.98;99935.34;4820150;29;97792;-74
2023/07/13 07:55:05;;;;;;;21.80;20.08;;;;;;;21.65;63.41;99963.31;4822052;29;98092;-74
2023/07/13 07:57:31;;;;;;;22.75;21.15;;;;;;;21.92;62.73;99971.59;4819709;29;96794;-75
2023/07/13 07:59:56;;;;;;;22.38;20.70;;;;;;;22.58;61.74;99991.72;4821495;29;96890;-75
2023/07/13 08:02:22;;;;;;;21.30;19.77;;;;;;;24.00;58.42;100003.66;4820844;29;98679;-75
2023/07/13 08:04:47;;;;;;;23.30;21.58;;;;;;;25.04;56.53;100018.53;4820816;29;98558;-75
2023/07/13 08:07:13;;;;;;;22.70;21.10;;;;;;;25.07;55.62;100012.88;4821178;29;96769;-76
2023/07/13 08:09:38;;;;;;;22.98;21.15;;;;;;;25.02;55.92;100025.91;4821571;29;97021;-75
2023/07/13 08:12:04;;;;;;;23.75;21.85;;;;;;;24.93;56.23;100032.19;4819382;29;98668;-75
2023/07/13 08:14:30;;;;;;;22.80;21.20;;;;;;;25.07;56.27;100036.19;4820494;29;98461;-75
2023/07/13 08:16:55;;;;;;;22.23;20.58;;;;;;;25.35;55.92;100053.09;4815867;29;97270;-75
2023/07/13 08:19:21;;;;;;;23.50;21.75;;;;;;;25.92;54.46;100047.38;4820699;29;97357;-73
2023/07/13 08:21:48;;;;;;;22.75;21.23;;;;;;;25.72;54.78;100052.91;4820632;29;98541;-73
2023/07/13 08:24:14;;;;;;;23.02;21.52;;;;;;;25.30;55.89;100058.91;4818940;29;98687;-74
2023/07/13 08:26:39;;;;;;;23.15;21.55;;;;;;;25.01;56.36;100069.00;4820995;29;97296;-74
2023/07/13 08:29:05;;;;;;;22.55;20.83;;;;;;;24.96;56.14;100064.09;4828466;29;96917;-74
2023/07/13 08:31:30;;;;;;;22.92;21.00;;;;;;;25.02;55.95;100073.41;4823937;29;98232;-67
2023/07/13 08:33:56;;;;;;;22.15;20.55;;;;;;;25.25;55.99;100079.22;4820295;29;98631;-68
2023/07/13 08:36:21;;;;;;;23.17;21.00;;;;;;;25.37;55.68;100086.03;4820646;29;98283;-67
2023/07/13 08:38:47;;;;;;;23.33;21.17;;;;;;;25.19;55.97;100088.72;4820052;29;97213;-67
2023/07/13 08:41:17;;;;;;;22.48;20.52;;;;;;;25.07;56.43;100088.06;4819846;29;98096;-68
2023/07/13 08:43:46;;;;;;;21.73;20.15;;;;;;;25.07;56.34;100096.13;4819706;29;98586;-70
2023/07/13 08:46:16;;;;;;;21.70;20.30;;;;;;;24.91;56.62;100095.91;4803423;29;97109;-70
2023/07/13 08:48:56;;;;;;;21.20;19.87;;;;;;;24.92;56.64;100097.59;4818981;29;96885;-70
2023/07/13 08:51:28;;;;;;;20.87;19.33;;;;;;;24.95;56.29;100099.16;4825216;29;98705;-70
2023/07/13 08:53:58;;;;;;;21.58;19.95;;;;;;;24.88;56.29;100104.28;4819855;29;98360;-70
2023/07/13 08:56:26;;;;;;;22.88;21.38;;;;;;;24.91;56.38;100106.66;4794811;29;97527;-70
2023/07/13 08:58:56;;;;;;;20.88;19.65;;;;;;;25.15;55.86;100105.28;4820287;29;97658;-68
2023/07/13 09:01:34;;;;;;;21.88;20.17;;;;;;;25.45;54.67;100106.75;4803626;29;98847;-68
2023/07/13 09:04:06;;;;;;;22.33;20.92;;;;;;;25.51;54.74;100101.63;4833588;29;98343;-70
2023/07/13 09:06:45;;;;;;;21.70;20.30;;;;;;;25.79;53.93;100098.81;4818351;29;96842;-70
2023/07/13 09:09:33;;;;;;;22.33;20.63;;;;;;;26.12;53.28;100104.47;4834480;29;96779;-70
2023/07/13 09:12:29;;;;;;;21.35;19.90;;;;;;;26.38;52.22;100109.84;4817141;29;98965;-70
2023/07/13 09:14:57;;;;;;;23.15;21.33;;;;;;;26.79;50.78;100112.75;4794364;29;98812;-70
2023/07/13 09:17:28;;;;;;;23.10;21.10;;;;;;;26.14;52.43;100111.38;4818455;29;96821;-70
2023/07/13 09:20:00;;;;;;;21.13;19.40;;;;;;;26.82;51.39;100107.06;4834802;29;96794;-70
2023/07/13 09:22:28;;;;;;;21.30;19.90;;;;;;;26.68;50.78;100100.47;4834078;29;98679;-70
2023/07/13 09:25:02;;;;;;;21.15;19.75;;;;;;;27.18;49.85;100098.81;4834458;29;99504;-83
2023/07/13 09:27:43;;;;;;;21.02;19.63;;;;;;;26.58;49.93;100107.78;4817670;29;96897;-84
2023/07/13 09:30:14;;;;;;;20.67;19.17;;;;;;;26.90;50.54;100104.41;4818402;29;96752;-84
2023/07/13 09:32:47;;;;;;;20.58;18.95;;;;;;;26.67;50.34;100108.69;4816649;29;98365;-84
2023/07/13 09:35:17;;;;;;;22.10;20.13;;;;;;;26.46;49.83;100103.66;4833167;29;98575;-83
2023/07/13 09:37:44;;;;;;;22.00;20.20;;;;;;;26.56;50.58;100099.91;4818627;29;97349;-83
2023/07/13 09:40:37;;;;;;;19.73;17.95;;;;;;;25.92;50.64;100098.47;4819444;29;96884;-83
2023/07/13 09:43:04;;;;;;;21.67;20.15;;;;;;;25.95;50.88;100093.63;4802247;29;98800;-81
2023/07/13 09:45:36;;;;;;;23.30;21.02;;;;;;;25.74;51.34;100095.75;4800485;29;98776;-82
2023/07/13 09:48:08;;;;;;;22.40;20.58;;;;;;;26.23;50.62;100089.91;4817983;29;96751;-83
2023/07/13 09:50:34;;;;;;;22.88;21.13;;;;;;;25.89;51.87;100088.88;4817669;29;97418;-83
2023/07/13 09:53:01;;;;;;;22.27;20.65;;;;;;;26.01;51.74;100075.16;4817477;29;98726;-83
2023/07/13 09:55:35;;;;;;;20.80;19.40;;;;;;;26.71;50.44;100080.44;4817075;29;98738;-75
2023/07/13 09:58:11;;;;;;;21.60;20.00;;;;;;;27.45;49.36;100078.78;4800331;29;96841;-75
2023/07/13 10:00:37;;;;;;;22.05;20.30;;;;;;;28.02;48.20;100072.56;4817295;29;96855;-75
2023/07/13 10:03:06;;;;;;;21.65;20.15;;;;;;;28.27;47.21;100071.50;4816778;29;99091;-75
2023/07/13 10:05:39;;;;;;;20.83;19.42;;;;;;;28.08;46.87;100075.44;4815978;29;98854;-80
2023/07/13 10:08:07;;;;;;;20.70;19.27;;;;;;;28.10;47.04;100073.41;4814451;29;96976;-82
2023/07/13 10:10:33;;;;;;;21.83;20.13;;;;;;;27.96;46.25;100072.25;4812349;29;96859;-81
2023/07/13 10:12:58;;;;;;;22.00;20.50;;;;;;;27.60;46.24;100090.59;4812633;29;98969;-78
2023/07/13 10:15:25;;;;;;;21.05;19.42;;;;;;;27.91;46.67;100089.94;4811654;29;98385;-78
2023/07/13 10:17:55;;;;;;;21.88;20.40;;;;;;;27.88;46.92;100095.69;4830751;29;97506;-78
2023/07/13 10:20:21;;;;;;;22.40;20.35;;;;;;;27.76;46.81;100096.00;4816832;29;97528;-79
2023/07/13 10:23:00;;;;;;;20.55;19.17;;;;;;;27.86;47.19;100097.69;4812603;29;98844;-78
2023/07/13 10:25:30;;;;;;;21.15;19.67;;;;;;;28.14;47.24;100100.88;4825056;29;98443;-77
2023/07/13 10:28:09;;;;;;;21.30;19.90;;;;;;;28.53;44.20;100098.25;4817878;29;96829;-77
2023/07/13 10:30:39;;;;;;;21.55;20.02;;;;;;;28.82;43.62;100094.94;4802205;29;97950;-76
2023/07/13 10:33:11;;;;;;;21.88;20.38;;;;;;;28.46;44.59;100091.06;4832305;29;99315;-77
2023/07/13 10:35:37;;;;;;;20.98;19.55;;;;;;;28.50;45.29;100097.78;4806715;29;98565;-78
2023/07/13 10:38:07;;;;;;;20.77;19.38;;;;;;;28.76;44.95;100090.25;4832018;29;97335;-81
2023/07/13 10:40:42;;;;;;;20.52;19.13;;;;;;;28.94;44.34;100098.09;4801162;29;96836;-79
2023/07/13 10:43:18;;;;;;;21.05;19.67;;;;;;;28.94;43.93;100091.84;4816897;29;98936;-75
2023/07/13 10:45:45;;;;;;;20.95;19.65;;;;;;;28.97;43.55;100097.72;4818958;29;98826;-81
2023/07/13 10:48:13;;;;;;;19.88;18.63;;;;;;;29.07;43.83;100089.47;4815679;29;97079;-79
2023/07/13 10:50:40;;;;;;;20.75;19.13;;;;;;;29.26;43.73;100098.94;4831014;29;97074;-77
2023/07/13 10:53:21;;;;;;;21.30;19.90;;;;;;;28.75;43.50;100093.97;4799993;29;98863;-77
2023/07/13 10:55:50;;;;;;;20.45;19.15;;;;;;;28.98;43.55;100096.72;4816721;29;98892;-75
2023/07/13 10:58:20;;;;;;;20.38;18.90;;;;;;;28.93;44.34;100095.56;4817240;29;98537;-75
2023/07/13 11:01:12;;;;;;;19.93;18.63;;;;;;;28.66;44.55;100084.22;4832760;29;97029;-77
2023/07/13 11:03:50;;;;;;;20.17;18.30;;;;;;;28.50;44.91;100093.22;4814780;29;98845;-78
2023/07/13 11:06:22;;;;;;;19.98;18.38;;;;;;;28.51;45.52;100089.53;4818943;29;98365;-78
2023/07/13 11:08:47;;;;;;;20.45;18.95;;;;;;;28.55;45.49;100087.31;4821620;29;96833;-80
2023/07/13 11:11:39;;;;;;;21.42;19.77;;;;;;;28.56;44.63;100091.69;4821772;29;96959;-77
2023/07/13 11:14:29;;;;;;;20.13;18.73;;;;;;;28.70;44.39;100098.22;4802133;29;99774;-77
2023/07/13 11:16:54;;;;;;;19.50;18.20;;;;;;;28.69;44.14;100101.94;4817484;29;98720;-78